Time;durP1;ratioP1;P1;durP2;ratioP2;P2;SDS_P1;SDS_P2;PMS_P1;PMS_P2;Temp;Humidity;BMP_temperature;BMP_pressure;BME280_temperature;BME280_humidity;BME280_pressure;Samples;Min_cycle;Max_cycle;Signal;HPM_P1;HPM_P2
2023/06/23 00:01:24;;;;;;;3.95;2.90;;;26.00;57.00;;;;;;5117791;27;45495;-70
2023/06/23 00:03:54;;;;;;;3.05;2.50;;;26.00;56.70;;;;;;5128347;27;45392;-69
2023/06/23 00:06:21;;;;;;;3.30;2.20;;;26.00;56.40;;;;;;5129553;27;45245;-71
2023/06/23 00:08:48;;;;;;;6.13;2.20;;;26.00;56.30;;;;;;5129001;27;46674;-71
2023/06/23 00:11:15;;;;;;;4.50;1.83;;;26.00;56.10;;;;;;5129071;27;45449;-70
2023/06/23 00:13:42;;;;;;;2.95;2.05;;;26.00;56.00;;;;;;5129169;27;45334;-70
2023/06/23 00:16:08;;;;;;;2.38;1.90;;;26.00;55.70;;;;;;5129260;27;45504;-71
2023/06/23 00:18:37;;;;;;;2.13;1.75;;;26.00;55.70;;;;;;5129075;27;45403;-70
2023/06/23 00:21:05;;;;;;;3.22;1.90;;;26.00;55.70;;;;;;5128926;27;45329;-70
2023/06/23 00:23:32;;;;;;;2.05;1.65;;;26.00;55.50;;;;;;5129064;27;45347;-70
2023/06/23 00:25:59;;;;;;;2.83;1.77;;;26.00;56.00;;;;;;5129053;27;45361;-70
2023/06/23 00:28:25;;;;;;;6.10;2.10;;;26.10;55.30;;;;;;5128594;27;45539;-71
2023/06/23 00:30:52;;;;;;;2.33;1.90;;;26.10;55.20;;;;;;5128690;27;45303;-72
2023/06/23 00:33:19;;;;;;;2.83;1.50;;;26.10;55.20;;;;;;5128955;27;45314;-70
2023/06/23 00:35:47;;;;;;;1.85;1.45;;;26.10;55.00;;;;;;5128974;27;45433;-70
2023/06/23 00:38:14;;;;;;;2.47;1.95;;;26.10;54.90;;;;;;5128611;27;45874;-71
2023/06/23 00:40:41;;;;;;;2.17;1.67;;;26.10;54.80;;;;;;5128447;27;45267;-70
2023/06/23 00:43:08;;;;;;;4.03;1.55;;;26.10;54.80;;;;;;5128515;27;45319;-71
2023/06/23 00:45:35;;;;;;;2.45;1.67;;;26.10;54.70;;;;;;5128681;27;45379;-71
2023/06/23 00:48:04;;;;;;;1.83;1.65;;;26.10;54.60;;;;;;5128086;27;45316;-70
2023/06/23 00:50:30;;;;;;;2.20;1.55;;;26.00;54.70;;;;;;5128137;27;45273;-70
2023/06/23 00:52:58;;;;;;;1.60;1.48;;;26.00;54.60;;;;;;5128577;27;45257;-70
2023/06/23 00:55:26;;;;;;;2.30;1.60;;;26.00;54.50;;;;;;5128847;27;45491;-71
2023/06/23 00:57:54;;;;;;;1.83;1.50;;;26.00;54.50;;;;;;5128044;27;46615;-70
2023/06/23 01:00:21;;;;;;;1.80;1.38;;;26.00;54.50;;;;;;5128192;27;45146;-70
2023/06/23 01:02:49;;;;;;;1.48;1.30;;;26.00;54.40;;;;;;5128279;27;45470;-71
2023/06/23 01:05:16;;;;;;;1.70;1.55;;;26.00;54.40;;;;;;5128209;27;45294;-71
2023/06/23 01:07:48;;;;;;;1.33;1.20;;;26.00;54.90;;;;;;5128127;27;45311;-70
2023/06/23 01:10:18;;;;;;;2.25;1.60;;;26.00;54.30;;;;;;5128022;27;45341;-70
2023/06/23 01:12:49;;;;;;;1.80;1.40;;;26.00;54.20;;;;;;5128246;27;45298;-70
2023/06/23 01:15:18;;;;;;;1.90;1.60;;;26.00;54.30;;;;;;5128398;27;45331;-70
2023/06/23 01:17:47;;;;;;;1.63;1.50;;;26.00;54.20;;;;;;5128203;27;45361;-70
2023/06/23 01:20:21;;;;;;;2.35;1.38;;;26.00;54.10;;;;;;5128005;27;45277;-71
2023/06/23 01:22:59;;;;;;;1.40;1.30;;;26.00;54.00;;;;;;5128129;27;45330;-70
2023/06/23 01:25:33;;;;;;;1.65;1.50;;;26.00;54.10;;;;;;5128085;27;45428;-70
2023/06/23 01:28:09;;;;;;;1.52;1.42;;;26.00;54.00;;;;;;5128207;27;47473;-70
2023/06/23 01:30:37;;;;;;;1.58;1.30;;;26.00;54.00;;;;;;5119598;27;45329;-71
2023/06/23 01:33:07;;;;;;;1.48;1.38;;;26.00;54.10;;;;;;5127768;27;45393;-70
2023/06/23 01:35:37;;;;;;;1.95;1.40;;;26.00;53.90;;;;;;5128039;27;45200;-71
2023/06/23 01:38:08;;;;;;;1.42;1.13;;;25.90;53.80;;;;;;5127711;27;46361;-70
2023/06/23 01:40:34;;;;;;;1.98;1.50;;;25.90;53.80;;;;;;5127624;27;45357;-71
2023/06/23 01:43:04;;;;;;;2.00;1.30;;;25.90;54.40;;;;;;5127737;27;45328;-70
2023/06/23 01:45:31;;;;;;;1.38;1.10;;;25.90;53.70;;;;;;5127761;27;45271;-70
2023/06/23 01:48:02;;;;;;;3.55;1.50;;;25.90;53.70;;;;;;5127438;27;45671;-70
2023/06/23 01:50:29;;;;;;;1.85;1.50;;;25.90;53.70;;;;;;5127671;27;45469;-70
2023/06/23 01:52:56;;;;;;;1.20;1.10;;;25.90;53.60;;;;;;5126887;27;45383;-70
2023/06/23 01:55:23;;;;;;;1.88;1.33;;;25.90;53.70;;;;;;5127455;27;45225;-70
2023/06/23 01:57:50;;;;;;;1.65;1.10;;;25.90;53.70;;;;;;5127119;27;46436;-70
2023/06/23 02:00:18;;;;;;;2.00;1.42;;;25.90;53.70;;;;;;5127215;27;45462;-70
2023/06/23 02:02:46;;;;;;;1.35;1.15;;;25.90;53.60;;;;;;5127258;27;45336;-70
2023/06/23 02:05:15;;;;;;;1.27;1.10;;;25.90;53.60;;;;;;5124859;27;45330;-70
2023/06/23 02:07:43;;;;;;;2.22;1.20;;;25.90;53.60;;;;;;5127169;27;45321;-70
2023/06/23 02:10:10;;;;;;;1.48;1.20;;;25.80;53.50;;;;;;5127079;27;45419;-70
2023/06/23 02:12:39;;;;;;;2.38;1.42;;;25.80;53.50;;;;;;5127271;27;45308;-70
2023/06/23 02:15:07;;;;;;;1.95;1.23;;;25.80;53.40;;;;;;5127653;27;45446;-70
2023/06/23 02:17:34;;;;;;;1.50;1.40;;;25.80;53.50;;;;;;5127328;27;46603;-71
2023/06/23 02:20:06;;;;;;;1.08;1.05;;;25.80;53.40;;;;;;5127221;27;45321;-71
2023/06/23 02:22:34;;;;;;;1.60;1.10;;;25.80;53.40;;;;;;5127446;27;45303;-71
2023/06/23 02:25:00;;;;;;;1.80;1.15;;;25.80;53.40;;;;;;5127398;27;45415;-71
2023/06/23 02:27:27;;;;;;;1.60;1.35;;;25.80;53.40;;;;;;5126861;27;46744;-70
2023/06/23 02:29:54;;;;;;;0.95;0.93;;;25.80;53.30;;;;;;5126977;27;45121;-70
2023/06/23 02:32:21;;;;;;;1.30;1.20;;;25.80;53.30;;;;;;5127210;27;45583;-71
2023/06/23 02:34:53;;;;;;;1.90;1.20;;;25.80;53.30;;;;;;5127219;27;45427;-70
2023/06/23 02:37:23;;;;;;;1.05;1.00;;;25.70;53.30;;;;;;5126976;27;46422;-71
2023/06/23 02:39:52;;;;;;;1.30;1.20;;;25.70;53.20;;;;;;5126745;27;45454;-71
2023/06/23 02:42:20;;;;;;;1.42;1.33;;;25.70;53.20;;;;;;5127044;27;45253;-70
2023/06/23 02:44:50;;;;;;;1.65;1.30;;;25.70;53.20;;;;;;5126815;27;45380;-70
2023/06/23 02:47:18;;;;;;;1.30;1.20;;;25.70;53.20;;;;;;5126437;27;46411;-70
2023/06/23 02:49:45;;;;;;;1.35;1.25;;;25.70;53.20;;;;;;5126751;27;45270;-70
2023/06/23 02:52:11;;;;;;;1.35;1.25;;;25.70;53.20;;;;;;5126853;27;45260;-71
2023/06/23 02:54:41;;;;;;;1.48;1.30;;;25.70;53.20;;;;;;5127093;27;45304;-71
2023/06/23 02:57:10;;;;;;;1.30;1.20;;;25.60;53.10;;;;;;5126675;27;46120;-70
2023/06/23 02:59:36;;;;;;;1.42;1.20;;;25.70;53.10;;;;;;5126820;27;45416;-70
2023/06/23 03:02:04;;;;;;;1.30;1.20;;;25.60;53.10;;;;;;5126580;27;45331;-70
2023/06/23 03:04:32;;;;;;;1.48;1.35;;;25.60;53.10;;;;;;5127534;27;45443;-70
2023/06/23 03:06:58;;;;;;;1.50;1.40;;;25.60;53.00;;;;;;5130191;27;46651;-70
2023/06/23 03:09:26;;;;;;;1.30;1.20;;;25.60;53.00;;;;;;5130219;27;45190;-71
2023/06/23 03:11:53;;;;;;;1.40;1.30;;;25.60;53.10;;;;;;5130250;27;45318;-70
2023/06/23 03:14:21;;;;;;;1.20;1.10;;;25.60;53.00;;;;;;5130501;27;45455;-70
2023/06/23 03:16:50;;;;;;;1.50;1.15;;;25.60;53.00;;;;;;5129891;27;46419;-70
2023/06/23 03:19:20;;;;;;;1.20;1.10;;;25.60;53.00;;;;;;5130048;27;45454;-73
2023/06/23 03:21:51;;;;;;;1.35;1.20;;;25.60;53.00;;;;;;5130347;27;45296;-70
2023/06/23 03:24:18;;;;;;;1.58;1.45;;;25.50;52.90;;;;;;5130317;27;45447;-70
2023/06/23 03:26:47;;;;;;;1.30;1.20;;;25.50;53.00;;;;;;5129882;27;45384;-70
2023/06/23 03:29:14;;;;;;;1.33;1.23;;;25.50;52.90;;;;;;5130109;27;45323;-70
2023/06/23 03:31:42;;;;;;;1.40;1.30;;;25.50;52.90;;;;;;5129828;27;45277;-72
2023/06/23 03:34:09;;;;;;;1.30;1.20;;;25.50;52.90;;;;;;5129530;27;45355;-70
2023/06/23 03:36:37;;;;;;;1.42;1.30;;;25.50;52.90;;;;;;5129696;27;46390;-70
2023/06/23 03:39:05;;;;;;;1.50;1.20;;;25.50;52.90;;;;;;5129695;27;45315;-70
2023/06/23 03:41:32;;;;;;;1.48;1.20;;;25.50;52.80;;;;;;5129788;27;45348;-70
2023/06/23 03:44:00;;;;;;;1.40;1.20;;;25.50;52.80;;;;;;5130040;27;45465;-70
2023/06/23 03:46:29;;;;;;;1.02;1.00;;;25.50;52.90;;;;;;5129422;27;46401;-70
2023/06/23 03:48:59;;;;;;;1.27;1.17;;;25.50;52.80;;;;;;5129303;27;45317;-70
2023/06/23 03:51:26;;;;;;;1.30;1.20;;;25.50;52.70;;;;;;5129645;27;45379;-70
2023/06/23 03:53:53;;;;;;;1.30;1.20;;;25.50;52.80;;;;;;5129810;27;45419;-70
2023/06/23 03:56:20;;;;;;;1.33;1.20;;;25.50;52.70;;;;;;5129393;27;45316;-70
2023/06/23 03:58:47;;;;;;;1.40;1.30;;;25.50;52.70;;;;;;5129499;27;45306;-70
2023/06/23 04:01:14;;;;;;;1.83;1.50;;;25.50;52.70;;;;;;5129347;27;45322;-71
2023/06/23 04:03:41;;;;;;;1.20;1.10;;;25.50;52.70;;;;;;5129520;27;45440;-70
2023/06/23 04:06:10;;;;;;;1.42;1.25;;;25.40;52.60;;;;;;5128964;27;46574;-71
2023/06/23 04:08:37;;;;;;;2.47;1.38;;;25.40;52.60;;;;;;5129200;27;45345;-71
2023/06/23 04:11:04;;;;;;;2.45;1.45;;;25.40;52.60;;;;;;5129338;27;45378;-70
2023/06/23 04:13:30;;;;;;;1.05;1.05;;;25.40;52.60;;;;;;5129586;27;45419;-70
2023/06/23 04:15:57;;;;;;;2.95;1.58;;;25.40;52.60;;;;;;5128530;27;46734;-70
2023/06/23 04:18:24;;;;;;;1.35;1.25;;;25.40;52.50;;;;;;5129135;27;45188;-70
2023/06/23 04:20:51;;;;;;;1.63;1.33;;;25.40;52.70;;;;;;5128983;27;45338;-71
2023/06/23 04:23:19;;;;;;;1.27;1.17;;;25.40;52.70;;;;;;5128790;27;45308;-70
2023/06/23 04:25:48;;;;;;;1.40;1.30;;;25.40;52.70;;;;;;5128853;27;45296;-70
2023/06/23 04:28:17;;;;;;;1.40;1.15;;;25.30;52.60;;;;;;5128956;27;45317;-70
2023/06/23 04:30:44;;;;;;;1.40;1.30;;;25.40;52.60;;;;;;5128811;27;45478;-71
2023/06/23 04:33:11;;;;;;;1.33;1.23;;;25.40;52.60;;;;;;5129080;27;45352;-70
2023/06/23 04:35:38;;;;;;;0.90;0.90;;;25.30;52.50;;;;;;5128491;27;45397;-71
2023/06/23 04:38:07;;;;;;;1.27;1.20;;;25.30;52.50;;;;;;5128664;27;45280;-70
2023/06/23 04:40:40;;;;;;;1.40;1.30;;;25.30;52.50;;;;;;5128797;27;45367;-70
2023/06/23 04:43:09;;;;;;;1.48;1.10;;;25.30;52.40;;;;;;5129224;27;45427;-71
2023/06/23 04:45:37;;;;;;;1.20;1.10;;;25.30;52.50;;;;;;5128439;27;45377;-70
2023/06/23 04:48:04;;;;;;;1.45;1.33;;;25.30;52.40;;;;;;5128742;27;45268;-70
2023/06/23 04:50:32;;;;;;;1.40;1.30;;;25.30;52.40;;;;;;5128520;27;45314;-70
2023/06/23 04:53:02;;;;;;;1.30;1.20;;;25.30;52.30;;;;;;5128740;27;45677;-70
2023/06/23 04:55:32;;;;;;;0.90;0.90;;;25.30;52.40;;;;;;5128243;27;46385;-71
2023/06/23 04:58:00;;;;;;;1.48;1.38;;;25.30;52.40;;;;;;5128197;27;46383;-70
2023/06/23 05:00:27;;;;;;;1.27;1.17;;;25.30;52.40;;;;;;5128188;27;45411;-70
2023/06/23 05:02:55;;;;;;;1.30;1.20;;;25.30;52.30;;;;;;5128259;27;45245;-70
2023/06/23 05:05:24;;;;;;;1.50;1.17;;;25.30;52.30;;;;;;5128166;27;45501;-71
2023/06/23 05:07:52;;;;;;;1.80;1.45;;;25.30;52.30;;;;;;5127979;27;45382;-70
2023/06/23 05:10:19;;;;;;;1.13;1.10;;;25.30;52.20;;;;;;5128195;27;45330;-70
2023/06/23 05:12:46;;;;;;;1.13;1.13;;;25.30;52.20;;;;;;5128436;27;45357;-70
2023/06/23 05:15:14;;;;;;;1.20;1.10;;;25.30;52.20;;;;;;5127585;27;45360;-70
2023/06/23 05:17:42;;;;;;;1.40;1.10;;;25.30;52.20;;;;;;5127685;27;45319;-70
2023/06/23 05:20:09;;;;;;;1.40;1.30;;;25.30;52.20;;;;;;5127810;27;45378;-70
2023/06/23 05:22:37;;;;;;;1.30;1.20;;;25.30;52.20;;;;;;5128138;27;45310;-70
2023/06/23 05:25:05;;;;;;;1.70;1.33;;;25.30;52.10;;;;;;5127512;27;46375;-70
2023/06/23 05:27:32;;;;;;;1.20;1.10;;;25.30;52.10;;;;;;5126653;27;45347;-70
2023/06/23 05:29:59;;;;;;;1.23;1.13;;;25.30;52.00;;;;;;5127699;27;45277;-70
2023/06/23 05:32:29;;;;;;;1.40;1.30;;;25.30;52.10;;;;;;5127768;27;45287;-70
2023/06/23 05:34:59;;;;;;;1.45;1.30;;;25.30;52.20;;;;;;5127673;27;45413;-70
2023/06/23 05:37:26;;;;;;;1.63;1.52;;;25.30;52.10;;;;;;5127387;27;45252;-70
2023/06/23 05:39:52;;;;;;;1.33;1.20;;;25.30;52.00;;;;;;5127229;27;45302;-70
2023/06/23 05:42:19;;;;;;;1.35;1.27;;;25.30;52.10;;;;;;5127752;27;45301;-70
2023/06/23 05:44:46;;;;;;;2.30;1.10;;;25.30;52.00;;;;;;5127170;27;46634;-70
2023/06/23 05:47:18;;;;;;;1.67;1.58;;;25.30;52.00;;;;;;5127273;27;45316;-70
2023/06/23 05:49:46;;;;;;;1.27;1.20;;;25.30;52.00;;;;;;5127285;27;45378;-70
2023/06/23 05:52:15;;;;;;;1.40;1.30;;;25.30;52.00;;;;;;5127666;27;45521;-70
2023/06/23 05:54:45;;;;;;;1.75;1.40;;;25.30;52.00;;;;;;5126937;27;45245;-70
2023/06/23 05:57:16;;;;;;;1.60;1.50;;;25.30;51.90;;;;;;5127211;27;45324;-69
2023/06/23 05:59:45;;;;;;;1.67;1.33;;;25.30;52.00;;;;;;5127091;27;45268;-70
2023/06/23 06:02:16;;;;;;;1.77;1.60;;;25.30;51.90;;;;;;5127299;27;45288;-70
2023/06/23 06:04:43;;;;;;;1.58;1.48;;;25.30;52.00;;;;;;5126821;27;46666;-70
2023/06/23 06:07:11;;;;;;;1.70;1.38;;;25.30;51.90;;;;;;5126670;27;45290;-69
2023/06/23 06:09:37;;;;;;;1.70;1.50;;;25.20;51.90;;;;;;5127013;27;45311;-69
2023/06/23 06:12:05;;;;;;;1.42;1.33;;;25.30;52.00;;;;;;5127190;27;45462;-69
2023/06/23 06:14:32;;;;;;;1.40;1.30;;;25.30;52.00;;;;;;5126850;27;46434;-70
2023/06/23 06:16:59;;;;;;;1.48;1.38;;;25.30;52.00;;;;;;5126642;27;45371;-70
2023/06/23 06:19:26;;;;;;;1.23;1.23;;;25.30;52.00;;;;;;5126899;27;45359;-70
2023/06/23 06:21:53;;;;;;;1.35;1.25;;;25.20;51.90;;;;;;5127160;27;45336;-70
2023/06/23 06:24:21;;;;;;;1.17;1.17;;;25.20;51.90;;;;;;5126623;27;46686;-70
2023/06/23 06:26:49;;;;;;;1.80;1.40;;;25.20;51.80;;;;;;5126415;27;45253;-69
2023/06/23 06:29:16;;;;;;;1.75;1.65;;;25.30;51.90;;;;;;5126543;27;45330;-69
2023/06/23 06:31:44;;;;;;;1.35;1.25;;;25.30;51.80;;;;;;5126755;27;45395;-70
2023/06/23 06:34:11;;;;;;;1.67;1.52;;;25.20;51.70;;;;;;5126459;27;45421;-69
2023/06/23 06:36:38;;;;;;;1.52;1.42;;;25.30;51.80;;;;;;5126717;27;45303;-69
2023/06/23 06:39:05;;;;;;;1.60;1.50;;;25.30;51.80;;;;;;5128013;27;45442;-70
2023/06/23 06:41:33;;;;;;;2.35;1.73;;;25.30;51.80;;;;;;5130438;27;45375;-70
2023/06/23 06:44:01;;;;;;;1.50;1.40;;;25.30;51.70;;;;;;5129960;27;46443;-69
2023/06/23 06:46:28;;;;;;;1.80;1.70;;;25.30;51.80;;;;;;5130081;27;45445;-69
2023/06/23 06:48:55;;;;;;;1.58;1.48;;;25.30;51.70;;;;;;5130240;27;45383;-69
2023/06/23 06:51:22;;;;;;;1.48;1.38;;;25.30;51.60;;;;;;5130388;27;45340;-69
2023/06/23 06:53:49;;;;;;;1.75;1.48;;;25.30;51.60;;;;;;5129971;27;45766;-69
2023/06/23 06:56:16;;;;;;;1.55;1.45;;;25.30;51.60;;;;;;5129946;27;45579;-69
2023/06/23 06:58:44;;;;;;;1.67;1.58;;;25.30;51.50;;;;;;5130013;27;45255;-69
2023/06/23 07:01:11;;;;;;;1.77;1.60;;;25.30;51.50;;;;;;5130015;27;45549;-69
2023/06/23 07:03:39;;;;;;;1.75;1.65;;;25.30;51.60;;;;;;5129453;27;47583;-69
2023/06/23 07:06:07;;;;;;;2.00;1.67;;;25.30;51.40;;;;;;5129696;27;45363;-69
2023/06/23 07:08:34;;;;;;;1.58;1.48;;;25.30;51.50;;;;;;5129774;27;45371;-69
2023/06/23 07:11:01;;;;;;;1.40;1.30;;;25.30;51.40;;;;;;5129732;27;45498;-69
2023/06/23 07:13:27;;;;;;;1.80;1.55;;;25.30;51.30;;;;;;5129451;27;46673;-69
2023/06/23 07:15:56;;;;;;;3.42;1.80;;;25.30;51.40;;;;;;5129601;27;45287;-70
2023/06/23 07:18:23;;;;;;;1.67;1.58;;;25.30;51.40;;;;;;5129638;27;45261;-69
2023/06/23 07:20:50;;;;;;;1.80;1.65;;;25.30;51.30;;;;;;5129735;27;45602;-68
2023/06/23 07:23:17;;;;;;;1.77;1.67;;;25.40;51.40;;;;;;5129331;27;46340;-68
2023/06/23 07:25:44;;;;;;;1.60;1.50;;;25.40;51.30;;;;;;5129715;27;45288;-69
2023/06/23 07:28:11;;;;;;;1.70;1.48;;;25.40;51.30;;;;;;5129557;27;45315;-69
2023/06/23 07:30:39;;;;;;;1.90;1.70;;;25.40;51.30;;;;;;5129647;27;45309;-70
2023/06/23 07:33:08;;;;;;;1.50;1.40;;;25.40;51.20;;;;;;5129333;27;46648;-68
2023/06/23 07:35:35;;;;;;;2.58;1.67;;;25.40;51.20;;;;;;5129299;27;45264;-69
2023/06/23 07:38:02;;;;;;;1.60;1.50;;;25.40;51.20;;;;;;5129383;27;45271;-69
2023/06/23 07:40:29;;;;;;;1.50;1.38;;;25.40;51.20;;;;;;5129523;27;45303;-69
2023/06/23 07:42:56;;;;;;;1.70;1.50;;;25.40;51.20;;;;;;5129058;27;45260;-69
2023/06/23 07:45:23;;;;;;;1.60;1.50;;;25.40;51.20;;;;;;5129137;27;45323;-68
2023/06/23 07:47:50;;;;;;;1.52;1.42;;;25.40;51.30;;;;;;5129201;27;45295;-68
2023/06/23 07:50:18;;;;;;;1.80;1.70;;;25.40;51.10;;;;;;5128276;27;45399;-68
2023/06/23 07:52:46;;;;;;;1.88;1.77;;;25.40;51.10;;;;;;5129304;27;45382;-69
2023/06/23 07:55:19;;;;;;;1.63;1.52;;;25.40;51.10;;;;;;5129012;27;45328;-68
2023/06/23 07:57:46;;;;;;;2.03;1.52;;;25.40;51.10;;;;;;5129216;27;45229;-69
2023/06/23 08:00:14;;;;;;;2.38;1.50;;;25.50;51.20;;;;;;5129094;27;45356;-69
2023/06/23 08:02:41;;;;;;;1.60;1.50;;;25.50;51.00;;;;;;5128518;27;46635;-69
2023/06/23 08:05:09;;;;;;;1.73;1.55;;;25.50;50.90;;;;;;5128885;27;45339;-69
2023/06/23 08:07:37;;;;;;;1.63;1.52;;;25.50;50.80;;;;;;5128939;27;45341;-68
2023/06/23 08:10:05;;;;;;;2.08;1.77;;;25.50;50.80;;;;;;5129033;27;45567;-68
2023/06/23 08:12:31;;;;;;;1.70;1.60;;;25.60;50.80;;;;;;5128670;27;45441;-68
2023/06/23 08:14:58;;;;;;;1.88;1.70;;;25.60;50.70;;;;;;5128637;27;45331;-68
2023/06/23 08:17:25;;;;;;;1.83;1.73;;;25.60;50.90;;;;;;5128756;27;45314;-68
2023/06/23 08:19:52;;;;;;;1.70;1.60;;;25.60;50.80;;;;;;5128867;27;45310;-68
2023/06/23 08:22:18;;;;;;;1.60;1.50;;;25.60;50.70;;;;;;5128229;27;46397;-68
2023/06/23 08:24:47;;;;;;;2.35;2.10;;;25.60;50.60;;;;;;5128545;27;45333;-68
2023/06/23 08:27:13;;;;;;;2.00;1.80;;;25.60;50.70;;;;;;5128420;27;45392;-69
2023/06/23 08:29:40;;;;;;;1.80;1.70;;;25.60;50.70;;;;;;5128605;27;45238;-68
2023/06/23 08:32:08;;;;;;;1.75;1.65;;;25.70;50.80;;;;;;5128293;27;45493;-68
2023/06/23 08:34:36;;;;;;;1.88;1.75;;;25.70;50.60;;;;;;5128425;27;45367;-68
2023/06/23 08:37:03;;;;;;;2.03;1.85;;;25.70;50.50;;;;;;5128875;27;45355;-69
2023/06/23 08:39:30;;;;;;;1.98;1.88;;;25.80;50.70;;;;;;5128609;27;45252;-69
2023/06/23 08:41:58;;;;;;;7.38;2.13;;;25.80;50.60;;;;;;5128225;27;45350;-68
2023/06/23 08:44:25;;;;;;;3.10;1.90;;;25.80;51.20;;;;;;5128082;27;45327;-67
2023/06/23 08:46:56;;;;;;;2.20;1.98;;;25.80;50.70;;;;;;5128250;27;45325;-67
2023/06/23 08:49:23;;;;;;;3.15;2.20;;;25.90;50.70;;;;;;5128296;27;45435;-67
2023/06/23 08:51:50;;;;;;;2.10;1.90;;;25.90;50.70;;;;;;5128078;27;45639;-67
2023/06/23 08:54:17;;;;;;;1.92;1.83;;;25.90;50.80;;;;;;5127966;27;45343;-67
2023/06/23 08:56:44;;;;;;;2.53;2.10;;;26.00;50.80;;;;;;5128242;27;45245;-67
2023/06/23 08:59:12;;;;;;;1.90;1.80;;;26.00;50.80;;;;;;5128388;27;45347;-67
2023/06/23 09:01:39;;;;;;;2.63;2.30;;;26.00;50.80;;;;;;5127787;27;46677;-67
2023/06/23 09:04:06;;;;;;;2.50;2.30;;;26.00;50.80;;;;;;5127718;27;45337;-68
2023/06/23 09:06:33;;;;;;;2.42;2.22;;;26.10;50.80;;;;;;5128060;27;45343;-67
2023/06/23 09:09:00;;;;;;;2.40;2.20;;;26.10;50.80;;;;;;5128098;27;45367;-67
2023/06/23 09:11:27;;;;;;;2.85;2.35;;;26.10;50.80;;;;;;5124893;27;46178;-67
2023/06/23 09:13:54;;;;;;;2.28;2.08;;;26.20;50.70;;;;;;5127560;27;45315;-68
2023/06/23 09:16:22;;;;;;;3.70;2.30;;;26.20;50.70;;;;;;5127773;27;45320;-67
2023/06/23 09:18:49;;;;;;;2.33;2.08;;;26.20;50.70;;;;;;5127846;27;45412;-67
2023/06/23 09:21:16;;;;;;;2.28;2.05;;;26.30;50.70;;;;;;5127411;27;46399;-67
2023/06/23 09:23:57;;;;;;;3.75;2.33;;;26.30;50.60;;;;;;5127703;27;45430;-67
2023/06/23 09:26:24;;;;;;;2.53;2.22;;;26.30;50.60;;;;;;5127546;27;45394;-67
2023/06/23 09:28:52;;;;;;;2.90;2.58;;;26.40;50.60;;;;;;5127562;27;45437;-67
2023/06/23 09:31:19;;;;;;;3.25;2.42;;;26.40;50.60;;;;;;5127143;27;46784;-67
2023/06/23 09:33:48;;;;;;;2.80;2.17;;;26.40;50.50;;;;;;5127924;27;45415;-67
2023/06/23 09:36:15;;;;;;;3.63;2.40;;;26.40;50.60;;;;;;5127461;27;45277;-67
2023/06/23 09:38:42;;;;;;;2.53;2.30;;;26.50;50.60;;;;;;5127616;27;45232;-67
2023/06/23 09:41:09;;;;;;;3.55;2.70;;;26.50;50.60;;;;;;5127090;27;45402;-68
2023/06/23 09:43:40;;;;;;;2.70;2.50;;;26.50;50.70;;;;;;5127268;27;45145;-67
2023/06/23 09:46:07;;;;;;;2.10;2.00;;;26.50;50.60;;;;;;5127370;27;45385;-67
2023/06/23 09:48:33;;;;;;;2.55;2.35;;;26.50;50.60;;;;;;5127575;27;45414;-67
2023/06/23 09:51:02;;;;;;;3.05;2.45;;;26.50;50.60;;;;;;5126952;27;45469;-67
2023/06/23 09:53:32;;;;;;;2.67;2.47;;;26.50;50.50;;;;;;5127324;27;45394;-68
2023/06/23 09:55:59;;;;;;;2.33;2.13;;;26.60;50.50;;;;;;5127288;27;45336;-69
2023/06/23 09:58:29;;;;;;;2.55;2.20;;;26.60;50.30;;;;;;5127382;27;45315;-68
2023/06/23 10:01:00;;;;;;;2.60;2.40;;;26.70;50.40;;;;;;5126899;27;46552;-68
2023/06/23 10:03:29;;;;;;;2.90;2.60;;;26.70;50.30;;;;;;5126713;27;45323;-68
2023/06/23 10:05:56;;;;;;;3.13;2.28;;;26.70;50.40;;;;;;5127404;27;45890;-69
2023/06/23 10:08:25;;;;;;;3.17;2.47;;;26.70;50.30;;;;;;5126953;27;45520;-68
2023/06/23 10:10:52;;;;;;;5.18;2.40;;;26.80;50.30;;;;;;5126682;27;46533;-69
2023/06/23 10:13:19;;;;;;;2.35;2.08;;;26.80;50.30;;;;;;5126333;27;45278;-68
2023/06/23 10:15:46;;;;;;;2.97;2.70;;;26.80;50.20;;;;;;5127243;27;45316;-68
2023/06/23 10:18:13;;;;;;;2.50;2.30;;;26.80;50.20;;;;;;5126939;27;45315;-68
2023/06/23 10:20:40;;;;;;;2.70;2.33;;;26.80;50.10;;;;;;5126695;27;46993;-69
2023/06/23 10:23:07;;;;;;;2.90;2.70;;;26.90;50.10;;;;;;5126971;27;45268;-68
2023/06/23 10:25:36;;;;;;;3.15;2.63;;;26.90;50.10;;;;;;5118495;27;45259;-69
2023/06/23 10:28:07;;;;;;;2.35;2.15;;;26.90;49.90;;;;;;5127020;27;45352;-68
2023/06/23 10:30:34;;;;;;;2.40;2.17;;;27.00;50.10;;;;;;5126438;27;46361;-69
2023/06/23 10:33:04;;;;;;;2.47;2.28;;;27.00;50.00;;;;;;5126823;27;45306;-68
2023/06/23 10:35:31;;;;;;;2.88;2.55;;;27.00;49.70;;;;;;5126720;27;45410;-68
2023/06/23 10:38:04;;;;;;;2.47;2.28;;;27.10;49.70;;;;;;5127192;27;45281;-68
2023/06/23 10:40:37;;;;;;;2.60;2.40;;;27.10;49.70;;;;;;5126229;27;46636;-68
2023/06/23 10:43:04;;;;;;;2.80;2.60;;;27.10;49.60;;;;;;5126520;27;45423;-68
2023/06/23 10:45:31;;;;;;;3.28;2.58;;;27.20;49.50;;;;;;5126612;27;45504;-68
2023/06/23 10:47:58;;;;;;;2.53;2.33;;;27.20;49.50;;;;;;5126614;27;45517;-68
2023/06/23 10:50:26;;;;;;;2.45;2.22;;;27.20;49.40;;;;;;5126225;27;45336;-68
2023/06/23 10:52:53;;;;;;;4.07;2.30;;;27.20;49.40;;;;;;5126459;27;45367;-68
2023/06/23 10:55:37;;;;;;;2.65;2.22;;;27.30;49.50;;;;;;5126539;27;45355;-68
2023/06/23 10:58:11;;;;;;;2.58;2.38;;;27.30;49.40;;;;;;5126962;27;45398;-69
2023/06/23 11:00:38;;;;;;;2.55;2.30;;;27.40;49.30;;;;;;5125785;27;46398;-69
2023/06/23 11:03:09;;;;;;;3.53;2.45;;;27.40;49.30;;;;;;5125878;27;45457;-68
2023/06/23 11:05:40;;;;;;;2.85;2.65;;;27.50;49.30;;;;;;5126311;27;45307;-69
2023/06/23 11:08:10;;;;;;;2.58;2.20;;;27.50;49.20;;;;;;5126316;27;45392;-69
2023/06/23 11:10:51;;;;;;;2.58;2.30;;;27.60;49.10;;;;;;5126494;27;45348;-69
2023/06/23 11:13:18;;;;;;;2.50;2.28;;;27.60;49.00;;;;;;5126220;27;45342;-67
2023/06/23 11:15:55;;;;;;;2.67;2.47;;;27.70;49.00;;;;;;5123496;27;45315;-69
2023/06/23 11:18:22;;;;;;;2.72;2.33;;;27.70;49.00;;;;;;5126279;27;45300;-69
2023/06/23 11:20:50;;;;;;;3.00;2.58;;;27.70;49.00;;;;;;5125725;27;45495;-67
2023/06/23 11:23:17;;;;;;;2.92;2.40;;;27.70;49.00;;;;;;5125931;27;45259;-70
2023/06/23 11:25:46;;;;;;;2.90;2.50;;;27.70;48.90;;;;;;5126740;27;45343;-69
2023/06/23 11:28:33;;;;;;;3.10;2.58;;;27.80;49.70;;;;;;5129646;27;45458;-73
2023/06/23 11:31:04;;;;;;;3.40;2.58;;;27.80;51.40;;;;;;5129285;27;46669;-69
2023/06/23 11:33:32;;;;;;;3.28;2.72;;;27.90;50.00;;;;;;5129694;27;45251;-73
2023/06/23 11:36:00;;;;;;;3.47;3.17;;;28.00;50.10;;;;;;5127303;27;45343;-71
2023/06/23 11:38:27;;;;;;;4.35;2.83;;;28.00;51.30;;;;;;5129749;27;45265;-70
2023/06/23 11:40:54;;;;;;;2.80;2.60;;;28.10;51.10;;;;;;5129474;27;45320;-71
2023/06/23 11:43:21;;;;;;;2.97;2.70;;;28.20;50.40;;;;;;5128913;27;45275;-71
2023/06/23 11:45:53;;;;;;;3.03;2.53;;;28.30;49.80;;;;;;5118300;27;45299;-70
2023/06/23 11:48:20;;;;;;;3.55;2.90;;;28.30;48.80;;;;;;5129516;27;45493;-69
2023/06/23 11:50:47;;;;;;;3.13;2.50;;;28.30;48.50;;;;;;5128880;27;46407;-72
2023/06/23 11:53:15;;;;;;;2.95;2.70;;;28.30;48.10;;;;;;5128680;27;45422;-70
2023/06/23 11:55:42;;;;;;;3.05;2.58;;;28.30;47.60;;;;;;5129200;27;45386;-73
2023/06/23 11:58:09;;;;;;;4.03;2.65;;;28.40;47.60;;;;;;5129355;27;45338;-71
2023/06/23 12:00:36;;;;;;;3.20;2.90;;;28.40;47.00;;;;;;5129163;27;46718;-71
2023/06/23 12:03:04;;;;;;;3.30;3.00;;;28.40;46.30;;;;;;5119901;27;45536;-71
2023/06/23 12:05:31;;;;;;;6.00;2.70;;;28.40;46.30;;;;;;5129216;27;45442;-73
2023/06/23 12:07:58;;;;;;;4.25;3.28;;;28.40;45.80;;;;;;5129305;27;45318;-73
2023/06/23 12:10:27;;;;;;;2.97;2.55;;;28.40;45.10;;;;;;5128280;27;46403;-73
2023/06/23 12:12:56;;;;;;;3.50;2.80;;;28.40;43.90;;;;;;5128493;27;45442;-69
2023/06/23 12:15:23;;;;;;;3.35;2.90;;;28.50;45.20;;;;;;5128916;27;45374;-71
2023/06/23 12:17:50;;;;;;;4.20;2.90;;;28.50;43.90;;;;;;5129272;27;45319;-68
2023/06/23 12:20:23;;;;;;;5.40;2.92;;;28.50;44.40;;;;;;5128239;27;45813;-70
2023/06/23 12:22:50;;;;;;;9.82;5.30;;;28.50;44.20;;;;;;5128378;27;45342;-68
2023/06/23 12:25:18;;;;;;;4.82;3.13;;;28.50;43.90;;;;;;5128512;27;45429;-70
2023/06/23 12:27:51;;;;;;;4.80;3.00;;;28.50;43.10;;;;;;5129445;27;45427;-79
2023/06/23 12:30:19;;;;;;;4.05;2.95;;;28.60;43.30;;;;;;5129211;27;46907;-73
2023/06/23 12:32:46;;;;;;;5.95;2.83;;;28.60;44.60;;;;;;5129158;27;45245;-75
2023/06/23 12:35:15;;;;;;;4.53;2.83;;;28.70;43.20;;;;;;5128340;27;45346;-72
2023/06/23 12:37:47;;;;;;;2.70;2.40;;;28.70;43.70;;;;;;5127961;27;45189;-73
2023/06/23 12:40:29;;;;;;;4.63;2.70;;;28.80;43.00;;;;;;5128387;27;47860;-71
2023/06/23 12:42:56;;;;;;;3.65;2.40;;;28.90;43.40;;;;;;5128387;27;45409;-71
2023/06/23 12:45:24;;;;;;;3.55;2.60;;;29.00;41.70;;;;;;5127928;27;45268;-70
2023/06/23 12:47:52;;;;;;;5.53;2.10;;;29.20;41.00;;;;;;5128335;27;45279;-72
2023/06/23 12:50:26;;;;;;;2.55;2.30;;;29.30;40.90;;;;;;5127960;27;46385;-75
2023/06/23 12:52:55;;;;;;;2.35;2.10;;;29.40;39.40;;;;;;5128564;27;45445;-75